Weather at Trondheim Heliport, Rosten

Public forecast

Using degrees Celsius for public forecast. Weather courtesy of forecast.io.

Closest aviation weather report (METAR) to Trondheim Heliport, Rosten

Closest report is Trondheim Airport, Værnes, 15.7 nm (29.1 km) ENE.

2024/05/30 05:20 (retrieved 33 minutes ago)

ENVA 300520Z 11006KT CAVOK 14/10 Q1010 NOSIG RMK WIND 670FT 10005KT

Closest aviation forecast (TAF) to Trondheim Heliport, Rosten

Forecast is more than 12 hours old.

Closest forecast is Salluit Airport, 2,184.7 nm (4,046.1 km) NW.

2024/05/29 14:00 (retrieved 16 hours ago)

TAF CYZG 291340Z 2914/2921 23020KT P6SM FEW012 SCT070 BKN100 TEMPO 2914/2918 BKN012 RMK NXT FCST BY 301400Z